Time;durP1;ratioP1;P1;durP2;ratioP2;P2;SDS_P1;SDS_P2;PMS_P1;PMS_P2;Temp;Humidity;BMP_temperature;BMP_pressure;BME280_temperature;BME280_humidity;BME280_pressure;Samples;Min_cycle;Max_cycle;Signal;HPM_P1;HPM_P2
2021/08/26 00:00:06;;;;;;;;;;;;;;;20.77;64.01;101443.94;5075999;28;1958;-54
2021/08/26 00:07:59;;;;;;;;;;;;;;;20.76;64.22;101440.38;5076745;28;909;-53
2021/08/26 00:10:24;;;;;;;;;;;;;;;20.76;64.34;101443.09;5057487;28;1764;-54
2021/08/26 00:12:49;;;;;;;;;;;;;;;20.74;64.41;101433.41;5057004;28;922;-53
2021/08/26 00:15:14;;;;;;;;;;;;;;;20.74;63.59;101422.56;5056638;28;915;-54
2021/08/26 00:17:40;;;;;;;;;;;;;;;20.74;63.84;101414.44;5056645;28;1392;-53
2021/08/26 00:20:05;;;;;;;;;;;;;;;20.74;64.18;101407.16;5056844;28;1973;-52
2021/08/26 00:22:31;;;;;;;;;;;;;;;20.73;64.18;101415.44;5056876;28;2222;-53
2021/08/26 00:24:56;;;;;;;;;;;;;;;20.73;64.24;101418.16;5056862;28;842;-55
2021/08/26 00:27:23;;;;;;;;;;;;;;;20.72;63.37;101417.31;5056721;28;1001;-55
2021/08/26 00:29:48;;;;;;;;;;;;;;;20.71;63.30;101418.31;5056651;28;763;-52
2021/08/26 00:32:13;;;;;;;;;;;;;;;20.71;63.26;101425.59;5056167;28;2843;-55
2021/08/26 00:34:38;;;;;;;;;;;;;;;20.69;63.54;101414.91;5073627;28;1989;-56
2021/08/26 00:37:03;;;;;;;;;;;;;;;20.69;63.63;101416.75;5060870;28;2073;-56
2021/08/26 00:39:28;;;;;;;;;;;;;;;20.68;63.18;101412.34;5056380;28;1957;-56
2021/08/26 00:41:54;;;;;;;;;;;;;;;20.68;63.61;101412.34;5056267;28;862;-51
2021/08/26 00:44:19;;;;;;;;;;;;;;;20.67;63.03;101410.63;5056347;28;1009;-53
2021/08/26 00:46:44;;;;;;;;;;;;;;;20.66;63.08;101387.25;5056159;28;997;-53
2021/08/26 00:49:09;;;;;;;;;;;;;;;20.64;63.46;101379.28;5056507;28;1897;-53
2021/08/26 00:51:34;;;;;;;;;;;;;;;20.64;62.53;101383.84;5061434;28;1899;-55
2021/08/26 00:53:59;;;;;;;;;;;;;;;20.64;63.07;101378.44;5075656;28;946;-54
2021/08/26 00:56:24;;;;;;;;;;;;;;;20.62;62.94;101386.69;5076464;28;854;-55
2021/08/26 00:58:49;;;;;;;;;;;;;;;20.62;62.57;101381.28;5075742;28;1828;-55
2021/08/26 01:01:14;;;;;;;;;;;;;;;20.61;62.33;101374.16;5073085;28;1890;-54
2021/08/26 01:03:39;;;;;;;;;;;;;;;20.61;62.31;101381.44;5062213;28;1770;-53
2021/08/26 01:06:04;;;;;;;;;;;;;;;20.60;62.95;101377.88;5076145;28;948;-56
2021/08/26 01:08:29;;;;;;;;;;;;;;;20.61;62.56;101378.72;5075246;28;826;-53
2021/08/26 01:10:54;;;;;;;;;;;;;;;20.59;62.23;101370.78;5075659;28;1960;-55
2021/08/26 01:13:20;;;;;;;;;;;;;;;20.60;61.92;101377.03;5075953;28;902;-55
2021/08/26 01:15:45;;;;;;;;;;;;;;;20.57;62.30;101361.09;5074870;28;2459;-56
2021/08/26 01:18:10;;;;;;;;;;;;;;;20.57;62.59;101361.09;5075313;28;1840;-53
2021/08/26 01:20:35;;;;;;;;;;;;;;;20.56;62.45;101364.81;5074178;28;1972;-53
2021/08/26 01:23:00;;;;;;;;;;;;;;;20.53;62.07;101356.97;5075752;28;914;-52
2021/08/26 01:25:25;;;;;;;;;;;;;;;20.53;61.53;101349.72;5075607;28;1130;-51
2021/08/26 01:27:50;;;;;;;;;;;;;;;20.51;61.81;101354.41;5074073;28;977;-50
2021/08/26 01:30:15;;;;;;;;;;;;;;;20.52;61.32;101363.41;5070167;28;1738;-52
2021/08/26 01:32:40;;;;;;;;;;;;;;;20.51;61.47;101361.69;5055357;28;877;-51
2021/08/26 01:35:05;;;;;;;;;;;;;;;20.49;61.62;101351.00;5055216;28;909;-54
2021/08/26 01:37:30;;;;;;;;;;;;;;;20.49;61.18;101355.56;5055202;28;886;-53
2021/08/26 01:39:56;;;;;;;;;;;;;;;20.48;61.54;101370.97;5071458;28;1902;-54
2021/08/26 01:42:21;;;;;;;;;;;;;;;20.48;61.47;101357.44;5074601;28;1268;-53
2021/08/26 01:44:46;;;;;;;;;;;;;;;20.44;61.05;101351.44;5069909;28;1818;-54
2021/08/26 01:47:11;;;;;;;;;;;;;;;20.44;60.99;101362.28;5055432;28;1481;-54
2021/08/26 01:49:36;;;;;;;;;;;;;;;20.45;61.33;101352.31;5055315;28;1060;-51
2021/08/26 01:52:01;;;;;;;;;;;;;;;20.43;61.17;101355.16;5055283;28;858;-51
2021/08/26 01:54:26;;;;;;;;;;;;;;;20.43;61.02;101359.72;5054589;28;1009;-54
2021/08/26 01:56:51;;;;;;;;;;;;;;;20.41;60.73;101367.19;5054807;28;949;-54
2021/08/26 01:59:16;;;;;;;;;;;;;;;20.40;60.33;101357.34;5054636;28;2570;-51
2021/08/26 02:01:41;;;;;;;;;;;;;;;20.39;60.06;101361.06;5053850;28;926;-51
2021/08/26 02:04:06;;;;;;;;;;;;;;;20.40;59.82;101360.06;5054797;28;1005;-52
2021/08/26 02:06:31;;;;;;;;;;;;;;;20.37;60.23;101363.91;5054953;28;1821;-52
2021/08/26 02:08:57;;;;;;;;;;;;;;;20.37;60.25;101363.06;5055117;28;874;-49
2021/08/26 02:11:22;;;;;;;;;;;;;;;20.36;60.36;101350.50;5054366;28;1106;-50
2021/08/26 02:13:47;;;;;;;;;;;;;;;20.36;59.81;101354.09;5055414;28;1893;-51
2021/08/26 02:16:14;;;;;;;;;;;;;;;20.35;60.23;101357.75;5054839;28;1782;-53
2021/08/26 02:18:39;;;;;;;;;;;;;;;20.35;59.72;101352.34;5055172;28;1029;-53
2021/08/26 02:21:04;;;;;;;;;;;;;;;20.34;59.77;101339.81;5054452;28;1914;-54
2021/08/26 02:23:29;;;;;;;;;;;;;;;20.35;60.14;101351.50;5055015;28;1013;-54
2021/08/26 02:25:54;;;;;;;;;;;;;;;20.32;59.72;101347.22;5055007;28;1724;-54
2021/08/26 02:28:19;;;;;;;;;;;;;;;20.33;60.29;101338.09;5066010;28;1813;-55
2021/08/26 02:30:44;;;;;;;;;;;;;;;20.33;60.24;101340.81;5074543;28;1164;-54
2021/08/26 02:33:09;;;;;;;;;;;;;;;20.32;60.08;101341.81;5074334;28;1587;-54
2021/08/26 02:35:34;;;;;;;;;;;;;;;20.34;60.20;101336.25;5074697;28;1641;-53
2021/08/26 02:38:00;;;;;;;;;;;;;;;20.33;60.06;101345.38;5074447;28;997;-51
2021/08/26 02:40:25;;;;;;;;;;;;;;;20.33;60.20;101348.06;5074670;28;1889;-51
2021/08/26 02:42:50;;;;;;;;;;;;;;;20.32;59.51;101355.34;5062054;28;1589;-51
2021/08/26 02:45:16;;;;;;;;;;;;;;;20.32;59.72;101355.34;5054251;28;844;-55
2021/08/26 02:47:41;;;;;;;;;;;;;;;20.31;59.75;101358.19;5054412;28;945;-54
2021/08/26 02:50:06;;;;;;;;;;;;;;;20.31;59.61;101350.06;5056918;28;1613;-53
2021/08/26 02:52:31;;;;;;;;;;;;;;;20.31;60.12;101356.34;5074801;28;913;-54
2021/08/26 02:54:57;;;;;;;;;;;;;;;20.31;60.10;101350.94;5077776;28;1060;-53
2021/08/26 02:57:22;;;;;;;;;;;;;;;20.29;59.37;101350.22;5078353;28;1083;-53
2021/08/26 02:59:47;;;;;;;;;;;;;;;20.28;60.33;101353.94;5078610;28;1947;-50
2021/08/26 03:02:12;;;;;;;;;;;;;;;20.27;59.63;101344.09;5076582;28;1879;-52
2021/08/26 03:04:37;;;;;;;;;;;;;;;20.26;60.30;101347.81;5058407;28;831;-53
2021/08/26 03:07:02;;;;;;;;;;;;;;;20.26;60.06;101334.28;5057909;28;843;-52
2021/08/26 03:09:27;;;;;;;;;;;;;;;20.26;59.59;101331.56;5057673;28;921;-55
2021/08/26 03:11:52;;;;;;;;;;;;;;;20.25;60.13;101338.00;5058526;28;1751;-54
2021/08/26 03:14:17;;;;;;;;;;;;;;;20.25;60.14;101331.72;5057975;28;788;-54
2021/08/26 03:16:42;;;;;;;;;;;;;;;20.25;60.40;101332.56;5061306;28;1890;-55
2021/08/26 03:19:07;;;;;;;;;;;;;;;20.24;59.54;101327.34;5077472;28;1903;-53
2021/08/26 03:21:33;;;;;;;;;;;;;;;20.24;59.73;101330.91;5076723;28;767;-52
2021/08/26 03:23:58;;;;;;;;;;;;;;;20.23;59.75;101323.78;5076770;28;1013;-53
2021/08/26 03:26:23;;;;;;;;;;;;;;;20.22;60.22;101319.38;5077435;28;1590;-54
2021/08/26 03:28:48;;;;;;;;;;;;;;;20.22;59.49;101318.50;5077544;28;1020;-53
2021/08/26 03:31:13;;;;;;;;;;;;;;;20.21;59.78;101322.22;5075846;28;1886;-55
2021/08/26 03:33:38;;;;;;;;;;;;;;;20.20;59.89;101321.38;5075784;28;876;-54
2021/08/26 03:36:04;;;;;;;;;;;;;;;20.20;59.82;101324.06;5077096;28;2476;-54
2021/08/26 03:38:29;;;;;;;;;;;;;;;20.21;59.91;101328.50;5077902;28;981;-55
2021/08/26 03:40:54;;;;;;;;;;;;;;;20.20;59.91;101331.34;5077623;28;1898;-55
2021/08/26 03:43:19;;;;;;;;;;;;;;;20.20;59.96;101336.75;5061727;28;1762;-55
2021/08/26 03:45:44;;;;;;;;;;;;;;;20.19;59.99;101324.22;5056134;28;1281;-50
2021/08/26 03:48:09;;;;;;;;;;;;;;;20.18;59.65;101317.97;5057246;28;860;-53
2021/08/26 03:50:34;;;;;;;;;;;;;;;20.18;59.17;101320.66;5057129;28;1843;-51
2021/08/26 03:53:00;;;;;;;;;;;;;;;20.17;59.39;101316.25;5056129;28;1310;-54
2021/08/26 03:55:25;;;;;;;;;;;;;;;20.17;59.24;101310.00;5056852;28;969;-53
2021/08/26 03:57:50;;;;;;;;;;;;;;;20.16;59.85;101305.56;5072337;28;1810;-53
2021/08/26 04:00:15;;;;;;;;;;;;;;;20.15;59.52;101309.28;5076942;28;1972;-53
2021/08/26 04:02:40;;;;;;;;;;;;;;;20.15;59.59;101304.72;5076868;28;1176;-54
2021/08/26 04:05:05;;;;;;;;;;;;;;;20.15;59.26;101318.25;5076075;28;1068;-53
2021/08/26 04:07:31;;;;;;;;;;;;;;;20.14;59.80;101321.09;5076430;28;929;-51
2021/08/26 04:09:56;;;;;;;;;;;;;;;20.14;59.76;101311.13;5075987;28;2103;-50
2021/08/26 04:12:21;;;;;;;;;;;;;;;20.13;59.36;101320.25;5067781;28;1985;-51
2021/08/26 04:14:46;;;;;;;;;;;;;;;20.12;59.62;101302.31;5056473;28;1017;-54
2021/08/26 04:17:11;;;;;;;;;;;;;;;20.10;59.92;101312.44;5056984;28;918;-53
2021/08/26 04:19:36;;;;;;;;;;;;;;;20.10;59.93;101305.16;5057000;28;1918;-51
2021/08/26 04:22:02;;;;;;;;;;;;;;;20.10;59.96;101298.91;5056831;28;803;-51
2021/08/26 04:24:27;;;;;;;;;;;;;;;20.10;58.85;101309.72;5057045;28;1766;-50
2021/08/26 04:26:52;;;;;;;;;;;;;;;20.10;59.25;101307.03;5056611;28;1929;-49
2021/08/26 04:29:17;;;;;;;;;;;;;;;20.09;59.52;101313.44;5056935;28;1782;-55
2021/08/26 04:31:42;;;;;;;;;;;;;;;20.08;59.55;101317.13;5056108;28;1599;-54
2021/08/26 04:34:07;;;;;;;;;;;;;;;20.07;59.40;101312.72;5056583;28;1057;-55
2021/08/26 04:36:32;;;;;;;;;;;;;;;20.07;59.59;101308.16;5056426;28;918;-54
2021/08/26 04:38:57;;;;;;;;;;;;;;;20.09;59.10;101308.03;5072065;28;1794;-55
2021/08/26 04:41:22;;;;;;;;;;;;;;;20.07;59.72;101305.47;5054140;28;1882;-53
2021/08/26 04:43:47;;;;;;;;;;;;;;;20.06;60.22;101302.94;5038574;28;1725;-53
2021/08/26 04:46:12;;;;;;;;;;;;;;;20.04;60.13;101294.09;5055642;28;1660;-54
2021/08/26 04:48:37;;;;;;;;;;;;;;;20.06;59.82;101300.22;5055574;28;1764;-55
2021/08/26 04:51:02;;;;;;;;;;;;;;;20.05;58.98;101298.53;5054405;28;1670;-54
2021/08/26 04:53:28;;;;;;;;;;;;;;;20.06;59.25;101302.94;5074345;28;1913;-52
2021/08/26 04:55:53;;;;;;;;;;;;;;;20.09;60.12;101297.19;5075939;28;1068;-53
2021/08/26 04:58:18;;;;;;;;;;;;;;;20.13;60.65;101290.50;5076005;28;1680;-55
2021/08/26 05:00:43;;;;;;;;;;;;;;;20.20;62.79;101288.03;5074196;28;1960;-54
2021/08/26 05:03:08;;;;;;;;;;;;;;;20.24;64.42;101286.75;5075880;28;846;-55
2021/08/26 05:05:33;;;;;;;;;;;;;;;20.25;64.63;101296.53;5051741;28;1624;-54
2021/08/26 05:07:58;;;;;;;;;;;;;;;20.26;63.51;101290.13;5050093;28;1674;-55
2021/08/26 05:10:23;;;;;;;;;;;;;;;20.21;63.84;101282.47;5069138;28;2450;-54
2021/08/26 05:12:48;;;;;;;;;;;;;;;20.21;63.84;101290.59;5075576;28;1013;-54
2021/08/26 05:15:13;;;;;;;;;;;;;;;20.19;62.69;101287.19;5075608;28;794;-53
2021/08/26 05:17:39;;;;;;;;;;;;;;;20.16;62.68;101292.03;5060955;28;1618;-55
2021/08/26 05:20:04;;;;;;;;;;;;;;;20.14;61.84;101300.31;5038895;28;1952;-53
2021/08/26 05:22:29;;;;;;;;;;;;;;;20.14;62.30;101284.06;5069617;28;1862;-55
2021/08/26 05:24:54;;;;;;;;;;;;;;;20.10;61.63;101279.97;5050386;28;1632;-54
2021/08/26 05:27:19;;;;;;;;;;;;;;;20.10;61.76;101285.38;5045585;28;1613;-55
2021/08/26 05:29:44;;;;;;;;;;;;;;;20.05;61.32;101279.59;5043534;28;1576;-51
2021/08/26 05:32:09;;;;;;;;;;;;;;;20.04;61.55;101283.28;5044624;28;1723;-55
2021/08/26 05:34:34;;;;;;;;;;;;;;;20.01;61.07;101283.59;5048148;28;1833;-53
2021/08/26 05:36:59;;;;;;;;;;;;;;;19.99;60.28;101277.47;5050599;28;1695;-54
2021/08/26 05:39:24;;;;;;;;;;;;;;;19.99;60.76;101289.13;5049211;28;1894;-55
2021/08/26 05:41:50;;;;;;;;;;;;;;;19.97;60.22;101287.59;5055454;28;927;-56
2021/08/26 05:44:15;;;;;;;;;;;;;;;19.97;61.00;101293.00;5055163;28;930;-55
2021/08/26 05:46:40;;;;;;;;;;;;;;;19.97;60.50;101295.69;5055087;28;858;-55
2021/08/26 05:49:05;;;;;;;;;;;;;;;19.96;60.30;101296.69;5059822;28;1851;-55
2021/08/26 05:51:30;;;;;;;;;;;;;;;19.95;60.01;101305.81;5064515;28;1562;-54
2021/08/26 05:53:55;;;;;;;;;;;;;;;19.94;60.77;101302.25;5051485;28;1601;-55
2021/08/26 05:56:20;;;;;;;;;;;;;;;19.93;60.90;101297.00;5054921;28;1055;-54
2021/08/26 05:58:45;;;;;;;;;;;;;;;19.93;61.13;101299.69;5055164;28;1644;-51
2021/08/26 06:01:10;;;;;;;;;;;;;;;19.95;60.14;101308.53;5039032;28;2253;-50
2021/08/26 06:03:35;;;;;;;;;;;;;;;19.93;59.70;101302.41;5053485;28;1931;-50
2021/08/26 06:06:00;;;;;;;;;;;;;;;19.91;59.98;101301.69;5074992;28;906;-52
2021/08/26 06:08:29;;;;;;;;;;;;;;;19.89;59.68;101299.13;5074965;28;1048;-53
2021/08/26 06:10:54;;;;;;;;;;;;;;;19.88;59.89;101285.78;5074865;28;1128;-51
2021/08/26 06:13:19;;;;;;;;;;;;;;;19.89;60.07;101288.31;5074983;28;997;-50
2021/08/26 06:15:44;;;;;;;;;;;;;;;19.88;60.07;101291.19;5075036;28;1029;-53
2021/08/26 06:18:09;;;;;;;;;;;;;;;19.88;60.13;101289.34;5059831;28;2546;-50
2021/08/26 06:20:36;;;;;;;;;;;;;;;19.89;60.09;101304.53;5054825;28;1918;-53
2021/08/26 06:23:01;;;;;;;;;;;;;;;19.87;59.77;101297.59;5055115;28;866;-53
2021/08/26 06:25:26;;;;;;;;;;;;;;;19.85;59.49;101294.19;5054775;28;2025;-55
2021/08/26 06:27:51;;;;;;;;;;;;;;;19.85;59.90;101294.19;5054933;28;1813;-52
2021/08/26 06:30:16;;;;;;;;;;;;;;;19.84;59.29;101293.34;5058543;28;878;-55
2021/08/26 06:32:41;;;;;;;;;;;;;;;19.86;59.56;101301.31;5075387;28;1868;-54
2021/08/26 06:35:07;;;;;;;;;;;;;;;19.84;59.70;101296.03;5079009;28;969;-55
2021/08/26 06:37:32;;;;;;;;;;;;;;;19.83;59.72;101301.59;5079143;28;1439;-55
2021/08/26 06:39:58;;;;;;;;;;;;;;;19.84;59.21;101304.16;5078524;28;1947;-55
2021/08/26 06:42:23;;;;;;;;;;;;;;;19.83;59.37;101307.88;5078810;28;935;-53
2021/08/26 06:44:48;;;;;;;;;;;;;;;19.82;59.27;101300.75;5078588;28;906;-55
2021/08/26 06:47:14;;;;;;;;;;;;;;;19.80;59.59;101302.75;5060654;28;1883;-53
2021/08/26 06:49:40;;;;;;;;;;;;;;;19.80;59.52;101310.00;5058530;28;788;-53
2021/08/26 06:52:05;;;;;;;;;;;;;;;19.80;59.35;101312.72;5051275;28;1815;-50
2021/08/26 06:54:31;;;;;;;;;;;;;;;19.77;59.50;101309.28;5053426;28;1718;-53
2021/08/26 06:56:56;;;;;;;;;;;;;;;19.76;59.56;101310.28;5049634;28;1520;-54
2021/08/26 06:59:21;;;;;;;;;;;;;;;19.79;59.83;101311.00;5057203;28;1931;-51
2021/08/26 07:01:46;;;;;;;;;;;;;;;19.79;59.77;101300.19;5046656;28;1694;-53
2021/08/26 07:04:11;;;;;;;;;;;;;;;19.80;59.69;101297.34;5057146;28;1600;-54
2021/08/26 07:06:36;;;;;;;;;;;;;;;19.84;59.32;101303.31;5048463;28;1697;-49
2021/08/26 07:09:01;;;;;;;;;;;;;;;19.82;60.10;101294.47;5038897;28;1906;-51
2021/08/26 07:11:26;;;;;;;;;;;;;;;19.80;60.01;101294.63;5047641;28;2329;-50
2021/08/26 07:13:51;;;;;;;;;;;;;;;19.82;59.94;101299.91;5047748;28;1621;-52
2021/08/26 07:16:17;;;;;;;;;;;;;;;19.81;59.73;101292.78;5055731;28;1607;-49
2021/08/26 07:18:42;;;;;;;;;;;;;;;19.80;60.14;101291.06;5055006;28;2530;-49
2021/08/26 07:21:07;;;;;;;;;;;;;;;19.85;60.54;101294.19;5045231;28;1976;-52
2021/08/26 07:23:32;;;;;;;;;;;;;;;19.87;59.56;101287.63;5040014;28;1681;-54
2021/08/26 07:25:58;;;;;;;;;;;;;;;19.88;59.68;101293.91;5039022;28;1688;-54
2021/08/26 07:28:24;;;;;;;;;;;;;;;19.87;59.15;101294.91;5047702;28;1789;-53
2021/08/26 07:30:49;;;;;;;;;;;;;;;19.89;59.78;101296.44;5038182;28;1727;-53
2021/08/26 07:33:15;;;;;;;;;;;;;;;19.90;59.26;101297.28;5037686;28;1653;-53
2021/08/26 07:35:40;;;;;;;;;;;;;;;19.93;59.31;101297.00;5045589;28;1753;-50
2021/08/26 07:38:05;;;;;;;;;;;;;;;20.00;59.92;101298.09;5055735;28;1925;-52
2021/08/26 07:40:30;;;;;;;;;;;;;;;19.99;59.73;101296.41;5056144;28;1960;-51
2021/08/26 07:42:55;;;;;;;;;;;;;;;20.00;59.56;101298.97;5060755;28;1826;-51
2021/08/26 07:45:20;;;;;;;;;;;;;;;20.03;60.02;101303.22;5056959;28;1806;-52
2021/08/26 07:47:45;;;;;;;;;;;;;;;20.03;59.84;101297.81;5057223;28;1937;-51
2021/08/26 07:50:10;;;;;;;;;;;;;;;20.06;59.24;101297.53;5056935;28;1922;-51
2021/08/26 07:52:35;;;;;;;;;;;;;;;20.04;60.00;101297.66;5057230;28;1909;-53
2021/08/26 07:55:02;;;;;;;;;;;;;;;20.05;58.82;101291.25;5049093;28;2014;-53
2021/08/26 07:57:27;;;;;;;;;;;;;;;20.04;59.15;101299.53;5064176;28;1932;-50
2021/08/26 07:59:52;;;;;;;;;;;;;;;20.00;59.25;101298.09;5065993;28;1955;-50
2021/08/26 08:02:17;;;;;;;;;;;;;;;19.98;59.45;101294.69;5054544;28;1977;-53
2021/08/26 08:04:43;;;;;;;;;;;;;;;19.98;59.45;101294.69;5051081;28;1714;-49
2021/08/26 08:07:08;;;;;;;;;;;;;;;19.93;60.39;101297.84;5047377;28;1712;-49
2021/08/26 08:09:33;;;;;;;;;;;;;;;19.90;60.12;101298.13;5055832;28;1584;-50
2021/08/26 08:11:59;;;;;;;;;;;;;;;19.93;59.95;101286.16;5051388;28;1536;-51
2021/08/26 08:14:25;;;;;;;;;;;;;;;19.91;59.98;101296.28;5041850;28;1685;-52
2021/08/26 08:16:50;;;;;;;;;;;;;;;19.92;60.00;101292.56;5043569;28;1590;-50
2021/08/26 08:19:15;;;;;;;;;;;;;;;19.91;59.78;101293.56;5041143;28;1710;-51
2021/08/26 08:21:40;;;;;;;;;;;;;;;19.90;60.24;101291.88;5051622;28;1906;-51
2021/08/26 08:24:05;;;;;;;;;;;;;;;19.89;59.83;101296.44;5036204;28;1799;-51
2021/08/26 08:26:30;;;;;;;;;;;;;;;19.92;59.71;101298.00;5059346;28;2122;-53
2021/08/26 08:28:55;;;;;;;;;;;;;;;19.92;60.37;101296.13;5050561;28;1794;-50
2021/08/26 08:31:20;;;;;;;;;;;;;;;19.94;59.64;101296.84;5035921;28;1627;-51
2021/08/26 08:33:46;;;;;;;;;;;;;;;19.96;59.76;101286.72;5037128;28;1926;-49
2021/08/26 08:36:11;;;;;;;;;;;;;;;19.94;59.95;101279.75;5038230;28;1728;-52
2021/08/26 08:38:36;;;;;;;;;;;;;;;19.94;59.43;101283.31;5037396;28;1675;-51
2021/08/26 08:41:01;;;;;;;;;;;;;;;19.87;60.09;101286.78;5040374;28;1960;-52
2021/08/26 08:43:26;;;;;;;;;;;;;;;19.87;60.24;101275.97;5053279;28;1634;-53
2021/08/26 08:45:52;;;;;;;;;;;;;;;19.88;59.76;101280.38;5037315;28;1651;-54
2021/08/26 08:48:17;;;;;;;;;;;;;;;19.88;60.30;101283.94;5044964;28;1656;-53
2021/08/26 08:50:44;;;;;;;;;;;;;;;19.90;60.04;101281.06;5047602;28;1802;-53
2021/08/26 08:53:09;;;;;;;;;;;;;;;19.94;60.16;101282.47;5041700;28;1580;-53
2021/08/26 08:55:34;;;;;;;;;;;;;;;19.93;60.25;101284.31;5036578;28;1613;-51
2021/08/26 08:57:59;;;;;;;;;;;;;;;19.93;60.12;101292.44;5036809;28;1666;-54
2021/08/26 09:00:25;;;;;;;;;;;;;;;19.93;60.04;101289.72;5052499;28;1945;-51
2021/08/26 09:02:50;;;;;;;;;;;;;;;19.92;60.60;101292.56;5061803;28;1939;-53
2021/08/26 09:05:15;;;;;;;;;;;;;;;19.93;59.67;101287.03;5060697;28;1724;-52
2021/08/26 09:07:40;;;;;;;;;;;;;;;19.93;60.58;101286.16;5042443;28;1887;-51
2021/08/26 09:10:05;;;;;;;;;;;;;;;19.94;60.12;101290.59;5040453;28;1615;-49
2021/08/26 09:12:30;;;;;;;;;;;;;;;19.91;60.47;101285.47;5050026;28;1606;-50
2021/08/26 09:14:55;;;;;;;;;;;;;;;19.86;60.00;101285.09;5042961;28;1616;-49
2021/08/26 09:17:20;;;;;;;;;;;;;;;19.89;60.45;101285.59;5057535;28;1829;-51
2021/08/26 09:19:45;;;;;;;;;;;;;;;19.91;60.62;101288.16;5037003;28;1910;-49
2021/08/26 09:22:10;;;;;;;;;;;;;;;19.88;60.80;101288.50;5036668;28;1622;-51
2021/08/26 09:24:35;;;;;;;;;;;;;;;19.90;60.69;101281.06;5038733;28;1603;-50
2021/08/26 09:27:00;;;;;;;;;;;;;;;19.93;60.66;101280.75;5038279;28;1556;-51
2021/08/26 09:29:26;;;;;;;;;;;;;;;19.92;60.59;101284.47;5042877;28;1662;-49
2021/08/26 09:31:51;;;;;;;;;;;;;;;19.89;60.23;101282.06;5036365;28;1796;-50
2021/08/26 09:34:16;;;;;;;;;;;;;;;19.93;60.35;101283.47;5034012;28;1589;-49
2021/08/26 09:36:41;;;;;;;;;;;;;;;19.97;60.40;101290.28;5038841;28;2114;-51
2021/08/26 09:39:06;;;;;;;;;;;;;;;19.99;60.56;101274.75;5046627;28;1639;-54
2021/08/26 09:41:31;;;;;;;;;;;;;;;20.00;60.63;101266.50;5054985;28;1894;-52
2021/08/26 09:43:56;;;;;;;;;;;;;;;20.01;60.83;101268.19;5055025;28;1930;-49
2021/08/26 09:46:22;;;;;;;;;;;;;;;20.05;61.07;101268.75;5054622;28;1821;-53
2021/08/26 09:48:47;;;;;;;;;;;;;;;20.03;61.16;101271.63;5055054;28;1856;-54
2021/08/26 09:51:12;;;;;;;;;;;;;;;20.06;60.68;101270.47;5054338;28;1782;-51
2021/08/26 09:53:37;;;;;;;;;;;;;;;20.11;65.98;101276.25;5046032;28;2010;-50
2021/08/26 09:56:02;;;;;;;;;;;;;;;20.12;64.34;101277.97;5035108;28;1503;-49
2021/08/26 09:58:27;;;;;;;;;;;;;;;20.12;63.83;101283.38;5042782;28;1869;-53
2021/08/26 10:00:52;;;;;;;;;;;;;;;20.11;63.34;101276.25;5048958;28;1961;-51
2021/08/26 10:03:17;;;;;;;;;;;;;;;20.10;63.15;101274.53;5052842;28;1749;-54
2021/08/26 10:05:43;;;;;;;;;;;;;;;20.11;62.55;101273.53;5059863;28;1741;-51
2021/08/26 10:08:08;;;;;;;;;;;;;;;20.13;62.77;101282.38;5054469;28;2254;-52
2021/08/26 10:10:33;;;;;;;;;;;;;;;20.11;62.06;101278.97;5054834;28;2180;-53
2021/08/26 10:12:58;;;;;;;;;;;;;;;20.10;62.75;101277.25;5054803;28;1963;-52
2021/08/26 10:15:23;;;;;;;;;;;;;;;20.09;62.39;101275.53;5066188;28;1979;-52
2021/08/26 10:17:48;;;;;;;;;;;;;;;20.07;62.93;101283.81;5054466;28;1958;-54
2021/08/26 10:20:13;;;;;;;;;;;;;;;20.07;61.74;101272.13;5052892;28;1997;-55
2021/08/26 10:22:38;;;;;;;;;;;;;;;20.07;62.38;101273.00;5053846;28;1947;-55
2021/08/26 10:25:03;;;;;;;;;;;;;;;20.05;62.20;101287.69;5054021;28;1991;-53
2021/08/26 10:27:28;;;;;;;;;;;;;;;20.06;61.95;101275.88;5059735;28;1924;-55
2021/08/26 10:29:53;;;;;;;;;;;;;;;20.06;61.71;101286.69;5053601;28;2239;-55
2021/08/26 10:32:19;;;;;;;;;;;;;;;20.05;61.59;101285.84;5049310;28;2028;-54
2021/08/26 10:34:44;;;;;;;;;;;;;;;20.05;61.68;101291.25;5044203;28;1818;-54
2021/08/26 10:37:09;;;;;;;;;;;;;;;20.05;62.19;101301.22;5050507;28;2312;-55
2021/08/26 10:39:34;;;;;;;;;;;;;;;20.07;61.97;101285.66;5056990;28;1898;-53
2021/08/26 10:41:59;;;;;;;;;;;;;;;20.06;61.40;101284.00;5054467;28;1786;-52
2021/08/26 10:44:24;;;;;;;;;;;;;;;20.07;62.11;101288.38;5054478;28;1805;-53
2021/08/26 10:46:49;;;;;;;;;;;;;;;20.08;61.42;101300.91;5053858;28;1964;-51
2021/08/26 10:49:14;;;;;;;;;;;;;;;20.10;61.55;101296.19;5051699;28;1534;-53
2021/08/26 10:51:39;;;;;;;;;;;;;;;20.09;61.94;101297.19;5054077;28;2220;-52
2021/08/26 10:54:04;;;;;;;;;;;;;;;20.09;61.88;101298.03;5059756;28;1900;-52
2021/08/26 10:56:30;;;;;;;;;;;;;;;20.09;61.82;101291.78;5053990;28;1624;-51
2021/08/26 10:58:55;;;;;;;;;;;;;;;20.08;61.61;101292.78;5053934;28;1740;-53
2021/08/26 11:01:20;;;;;;;;;;;;;;;20.07;62.26;101288.38;5050703;28;1898;-54
2021/08/26 11:03:45;;;;;;;;;;;;;;;20.07;61.40;101291.06;5050441;28;1644;-53
2021/08/26 11:06:10;;;;;;;;;;;;;;;20.09;61.49;101292.63;5048645;28;1874;-52
2021/08/26 11:08:36;;;;;;;;;;;;;;;20.09;61.82;101289.06;5052645;28;1654;-52
2021/08/26 11:11:01;;;;;;;;;;;;;;;20.09;60.95;101295.34;5053265;28;1697;-53
2021/08/26 11:13:27;;;;;;;;;;;;;;;20.09;61.19;101297.19;5053799;28;1487;-51
2021/08/26 11:15:52;;;;;;;;;;;;;;;20.07;61.69;101294.63;5049793;28;1994;-54
2021/08/26 11:18:17;;;;;;;;;;;;;;;20.07;61.47;101307.31;5046312;28;2082;-53
2021/08/26 11:20:42;;;;;;;;;;;;;;;20.10;61.80;101296.19;5053004;28;2310;-53
2021/08/26 11:23:07;;;;;;;;;;;;;;;20.09;61.51;101297.19;5045986;28;1715;-55
2021/08/26 11:25:32;;;;;;;;;;;;;;;20.11;61.10;101297.91;5040209;28;1644;-52
2021/08/26 11:27:57;;;;;;;;;;;;;;;20.13;60.81;101300.47;5043881;28;1752;-52
2021/08/26 11:30:22;;;;;;;;;;;;;;;20.11;61.40;101289.78;5070376;28;1804;-54
2021/08/26 11:32:47;;;;;;;;;;;;;;;20.12;60.99;101302.31;5057448;28;887;-52
2021/08/26 11:35:13;;;;;;;;;;;;;;;20.11;60.89;101296.03;5057628;28;820;-52
2021/08/26 11:37:38;;;;;;;;;;;;;;;20.12;60.98;101299.59;5056301;28;781;-53
2021/08/26 11:40:03;;;;;;;;;;;;;;;20.11;60.98;101314.13;5057453;28;1890;-53
2021/08/26 11:42:28;;;;;;;;;;;;;;;20.07;61.23;101294.63;5063094;28;1772;-54
2021/08/26 11:44:53;;;;;;;;;;;;;;;20.03;61.40;101297.81;5077110;28;880;-53
2021/08/26 11:47:19;;;;;;;;;;;;;;;20.00;61.63;101303.53;5077632;28;1787;-53
2021/08/26 11:49:44;;;;;;;;;;;;;;;20.04;61.02;101304.94;5077685;28;1021;-55
2021/08/26 11:52:09;;;;;;;;;;;;;;;20.07;61.53;101300.03;5077570;28;791;-55
2021/08/26 11:54:34;;;;;;;;;;;;;;;20.09;60.74;101299.91;5077688;28;1040;-52
2021/08/26 11:56:59;;;;;;;;;;;;;;;20.06;61.16;101298.34;5069225;28;1755;-53
2021/08/26 11:59:24;;;;;;;;;;;;;;;20.07;61.23;101293.78;5057249;28;930;-50
2021/08/26 12:01:49;;;;;;;;;;;;;;;20.09;61.07;101302.59;5054682;28;1972;-52
2021/08/26 12:04:14;;;;;;;;;;;;;;;20.09;61.18;101289.94;5049468;28;1569;-56
2021/08/26 12:06:39;;;;;;;;;;;;;;;20.11;61.53;101292.50;5046263;28;1545;-55
2021/08/26 12:09:04;;;;;;;;;;;;;;;20.11;61.36;101297.91;5070888;28;1641;-55
2021/08/26 12:11:29;;;;;;;;;;;;;;;20.11;61.07;101292.50;5056570;28;1121;-53
2021/08/26 12:13:54;;;;;;;;;;;;;;;20.13;60.90;101298.59;5056659;28;1242;-53
2021/08/26 12:16:20;;;;;;;;;;;;;;;20.11;61.56;101287.94;5054983;28;1426;-53
2021/08/26 12:18:45;;;;;;;;;;;;;;;20.12;61.43;101299.59;5056628;28;961;-53
2021/08/26 12:21:11;;;;;;;;;;;;;;;20.14;60.89;101294.03;5072674;28;1958;-55
2021/08/26 12:23:40;;;;;;;;;;;;;;;20.15;61.53;101290.34;5075027;28;1420;-54
2021/08/26 12:26:05;;;;;;;;;;;;;;;20.14;60.81;101286.78;5076406;28;881;-54
2021/08/26 12:28:30;;;;;;;;;;;;;;;20.17;60.91;101289.19;5059888;28;1817;-53
2021/08/26 12:30:55;;;;;;;;;;;;;;;20.14;61.44;101284.06;5056630;28;1006;-51
2021/08/26 12:33:20;;;;;;;;;;;;;;;20.15;61.39;101299.31;5056735;28;958;-55
2021/08/26 12:35:45;;;;;;;;;;;;;;;20.14;61.59;101299.47;5074128;28;1812;-50
2021/08/26 12:38:10;;;;;;;;;;;;;;;20.15;61.61;101299.31;5063544;28;1587;-52
2021/08/26 12:40:35;;;;;;;;;;;;;;;20.17;60.99;101304.56;5044367;28;1955;-52